sensor_id;sensor_type;location;lat;lon;timestamp;P1;durP1;ratioP1;P2;durP2;ratioP2
30519;SDS011;17300;50.374;8.006;2022-11-15T00:02:18;6.83;;;6.13;;
30519;SDS011;17300;50.374;8.006;2022-11-15T00:04:45;6.23;;;5.63;;
30519;SDS011;17300;50.374;8.006;2022-11-15T00:07:11;7.80;;;6.03;;
30519;SDS011;17300;50.374;8.006;2022-11-15T00:09:38;7.57;;;6.00;;
30519;SDS011;17300;50.374;8.006;2022-11-15T00:12:05;7.97;;;6.13;;
30519;SDS011;17300;50.374;8.006;2022-11-15T00:14:33;6.80;;;6.07;;
30519;SDS011;17300;50.374;8.006;2022-11-15T00:17:00;6.47;;;5.87;;
30519;SDS011;17300;50.374;8.006;2022-11-15T00:19:26;8.57;;;6.20;;
30519;SDS011;17300;50.374;8.006;2022-11-15T00:21:53;6.87;;;6.17;;
30519;SDS011;17300;50.374;8.006;2022-11-15T00:24:19;6.20;;;5.60;;
30519;SDS011;17300;50.374;8.006;2022-11-15T00:26:46;6.90;;;5.87;;
30519;SDS011;17300;50.374;8.006;2022-11-15T00:29:13;6.27;;;5.67;;
30519;SDS011;17300;50.374;8.006;2022-11-15T00:31:41;6.63;;;6.00;;
30519;SDS011;17300;50.374;8.006;2022-11-15T00:34:08;5.97;;;5.37;;
30519;SDS011;17300;50.374;8.006;2022-11-15T00:36:35;6.17;;;5.57;;
30519;SDS011;17300;50.374;8.006;2022-11-15T00:39:03;6.83;;;5.43;;
30519;SDS011;17300;50.374;8.006;2022-11-15T00:41:29;6.23;;;5.60;;
30519;SDS011;17300;50.374;8.006;2022-11-15T00:43:56;5.97;;;5.37;;
30519;SDS011;17300;50.374;8.006;2022-11-15T00:46:23;6.10;;;5.50;;
30519;SDS011;17300;50.374;8.006;2022-11-15T00:48:51;6.90;;;6.07;;
30519;SDS011;17300;50.374;8.006;2022-11-15T00:51:18;8.13;;;5.73;;
30519;SDS011;17300;50.374;8.006;2022-11-15T00:53:45;6.47;;;5.87;;
30519;SDS011;17300;50.374;8.006;2022-11-15T00:56:11;6.83;;;6.13;;
30519;SDS011;17300;50.374;8.006;2022-11-15T00:58:38;5.77;;;5.17;;
30519;SDS011;17300;50.374;8.006;2022-11-15T01:01:05;6.13;;;5.53;;
30519;SDS011;17300;50.374;8.006;2022-11-15T01:03:33;6.40;;;5.80;;
30519;SDS011;17300;50.374;8.006;2022-11-15T01:06:01;7.53;;;6.27;;
30519;SDS011;17300;50.374;8.006;2022-11-15T01:08:28;8.47;;;6.37;;
30519;SDS011;17300;50.374;8.006;2022-11-15T01:10:59;6.10;;;5.50;;
30519;SDS011;17300;50.374;8.006;2022-11-15T01:13:28;6.63;;;5.77;;
30519;SDS011;17300;50.374;8.006;2022-11-15T01:15:56;6.20;;;5.60;;
30519;SDS011;17300;50.374;8.006;2022-11-15T01:18:23;6.43;;;5.80;;
30519;SDS011;17300;50.374;8.006;2022-11-15T01:20:50;7.00;;;5.83;;
30519;SDS011;17300;50.374;8.006;2022-11-15T01:23:18;7.33;;;6.30;;
30519;SDS011;17300;50.374;8.006;2022-11-15T01:25:44;6.83;;;6.20;;
30519;SDS011;17300;50.374;8.006;2022-11-15T01:28:11;7.90;;;6.70;;
30519;SDS011;17300;50.374;8.006;2022-11-15T01:30:38;7.47;;;6.30;;
30519;SDS011;17300;50.374;8.006;2022-11-15T01:33:04;7.60;;;6.70;;
30519;SDS011;17300;50.374;8.006;2022-11-15T01:35:31;7.67;;;6.87;;
30519;SDS011;17300;50.374;8.006;2022-11-15T01:37:58;7.50;;;6.70;;
30519;SDS011;17300;50.374;8.006;2022-11-15T01:40:26;7.23;;;6.53;;
30519;SDS011;17300;50.374;8.006;2022-11-15T01:42:52;7.23;;;6.53;;
30519;SDS011;17300;50.374;8.006;2022-11-15T01:45:19;7.20;;;6.47;;
30519;SDS011;17300;50.374;8.006;2022-11-15T01:47:46;7.80;;;7.00;;
30519;SDS011;17300;50.374;8.006;2022-11-15T01:50:19;8.67;;;5.90;;
30519;SDS011;17300;50.374;8.006;2022-11-15T01:52:48;6.73;;;6.07;;
30519;SDS011;17300;50.374;8.006;2022-11-15T01:55:16;6.80;;;6.10;;
30519;SDS011;17300;50.374;8.006;2022-11-15T01:57:47;7.90;;;6.40;;
30519;SDS011;17300;50.374;8.006;2022-11-15T02:00:17;7.07;;;5.97;;
30519;SDS011;17300;50.374;8.006;2022-11-15T02:02:44;7.67;;;6.07;;
30519;SDS011;17300;50.374;8.006;2022-11-15T02:05:10;8.63;;;7.10;;
30519;SDS011;17300;50.374;8.006;2022-11-15T02:07:37;8.33;;;7.20;;
30519;SDS011;17300;50.374;8.006;2022-11-15T02:10:06;7.17;;;6.47;;
30519;SDS011;17300;50.374;8.006;2022-11-15T02:12:35;7.03;;;6.33;;
30519;SDS011;17300;50.374;8.006;2022-11-15T02:15:04;7.27;;;6.33;;
30519;SDS011;17300;50.374;8.006;2022-11-15T02:17:37;7.10;;;6.40;;
30519;SDS011;17300;50.374;8.006;2022-11-15T02:20:29;6.90;;;6.03;;
30519;SDS011;17300;50.374;8.006;2022-11-15T02:26:27;8.97;;;6.83;;
30519;SDS011;17300;50.374;8.006;2022-11-15T02:29:12;7.30;;;6.60;;
30519;SDS011;17300;50.374;8.006;2022-11-15T02:31:48;7.20;;;6.50;;
30519;SDS011;17300;50.374;8.006;2022-11-15T02:34:21;7.47;;;6.77;;
30519;SDS011;17300;50.374;8.006;2022-11-15T02:36:56;8.33;;;6.90;;
30519;SDS011;17300;50.374;8.006;2022-11-15T02:39:29;7.53;;;6.53;;
30519;SDS011;17300;50.374;8.006;2022-11-15T02:42:17;7.40;;;6.40;;
30519;SDS011;17300;50.374;8.006;2022-11-15T02:45:07;8.13;;;6.63;;
30519;SDS011;17300;50.374;8.006;2022-11-15T02:47:39;7.30;;;6.60;;
30519;SDS011;17300;50.374;8.006;2022-11-15T02:50:10;8.53;;;7.13;;
30519;SDS011;17300;50.374;8.006;2022-11-15T02:52:38;7.47;;;6.67;;
30519;SDS011;17300;50.374;8.006;2022-11-15T02:57:56;8.27;;;7.20;;
30519;SDS011;17300;50.374;8.006;2022-11-15T03:00:34;6.97;;;6.27;;
30519;SDS011;17300;50.374;8.006;2022-11-15T03:05:57;7.47;;;6.33;;
30519;SDS011;17300;50.374;8.006;2022-11-15T03:08:32;7.43;;;6.50;;
30519;SDS011;17300;50.374;8.006;2022-11-15T03:11:07;7.50;;;6.80;;
30519;SDS011;17300;50.374;8.006;2022-11-15T03:13:36;7.30;;;6.60;;
30519;SDS011;17300;50.374;8.006;2022-11-15T03:16:11;6.60;;;5.93;;
30519;SDS011;17300;50.374;8.006;2022-11-15T03:18:43;7.07;;;6.37;;
30519;SDS011;17300;50.374;8.006;2022-11-15T03:21:14;7.20;;;6.47;;
30519;SDS011;17300;50.374;8.006;2022-11-15T03:23:44;7.23;;;6.07;;
30519;SDS011;17300;50.374;8.006;2022-11-15T03:26:13;7.60;;;6.80;;
30519;SDS011;17300;50.374;8.006;2022-11-15T03:28:42;7.83;;;6.10;;
30519;SDS011;17300;50.374;8.006;2022-11-15T03:31:13;6.50;;;5.40;;
30519;SDS011;17300;50.374;8.006;2022-11-15T03:34:02;6.40;;;5.67;;
30519;SDS011;17300;50.374;8.006;2022-11-15T03:36:32;6.60;;;5.90;;
30519;SDS011;17300;50.374;8.006;2022-11-15T03:39:01;5.97;;;5.37;;
30519;SDS011;17300;50.374;8.006;2022-11-15T03:41:32;6.10;;;5.50;;
30519;SDS011;17300;50.374;8.006;2022-11-15T03:44:04;6.50;;;5.80;;
30519;SDS011;17300;50.374;8.006;2022-11-15T03:46:40;6.27;;;5.27;;
30519;SDS011;17300;50.374;8.006;2022-11-15T03:49:15;6.07;;;5.47;;
30519;SDS011;17300;50.374;8.006;2022-11-15T03:51:45;5.83;;;5.27;;
30519;SDS011;17300;50.374;8.006;2022-11-15T03:54:12;5.60;;;5.10;;
30519;SDS011;17300;50.374;8.006;2022-11-15T03:56:39;6.10;;;5.50;;
30519;SDS011;17300;50.374;8.006;2022-11-15T03:59:06;5.50;;;5.00;;
30519;SDS011;17300;50.374;8.006;2022-11-15T04:01:33;5.73;;;5.17;;
30519;SDS011;17300;50.374;8.006;2022-11-15T04:04:00;5.87;;;5.27;;
30519;SDS011;17300;50.374;8.006;2022-11-15T04:06:28;9.30;;;5.50;;
30519;SDS011;17300;50.374;8.006;2022-11-15T04:08:54;5.33;;;4.77;;
30519;SDS011;17300;50.374;8.006;2022-11-15T04:11:21;5.70;;;5.20;;
30519;SDS011;17300;50.374;8.006;2022-11-15T04:13:47;5.97;;;5.37;;
30519;SDS011;17300;50.374;8.006;2022-11-15T04:16:14;5.43;;;4.93;;
30519;SDS011;17300;50.374;8.006;2022-11-15T04:18:41;5.67;;;5.10;;
30519;SDS011;17300;50.374;8.006;2022-11-15T04:21:08;5.43;;;4.90;;
30519;SDS011;17300;50.374;8.006;2022-11-15T04:23:53;5.40;;;4.90;;
30519;SDS011;17300;50.374;8.006;2022-11-15T04:26:38;5.00;;;4.50;;
30519;SDS011;17300;50.374;8.006;2022-11-15T04:29:05;5.50;;;5.00;;
30519;SDS011;17300;50.374;8.006;2022-11-15T04:31:49;6.20;;;4.90;;
30519;SDS011;17300;50.374;8.006;2022-11-15T04:34:16;5.27;;;4.77;;
30519;SDS011;17300;50.374;8.006;2022-11-15T04:36:42;5.43;;;4.93;;
30519;SDS011;17300;50.374;8.006;2022-11-15T04:39:28;4.73;;;4.33;;
30519;SDS011;17300;50.374;8.006;2022-11-15T04:41:54;5.43;;;4.93;;
30519;SDS011;17300;50.374;8.006;2022-11-15T04:44:21;5.57;;;5.07;;
30519;SDS011;17300;50.374;8.006;2022-11-15T04:46:48;5.27;;;4.77;;
30519;SDS011;17300;50.374;8.006;2022-11-15T04:49:14;5.73;;;5.23;;
30519;SDS011;17300;50.374;8.006;2022-11-15T04:51:41;4.93;;;4.43;;
30519;SDS011;17300;50.374;8.006;2022-11-15T04:54:08;5.47;;;4.93;;
30519;SDS011;17300;50.374;8.006;2022-11-15T04:56:36;6.30;;;4.80;;
30519;SDS011;17300;50.374;8.006;2022-11-15T04:59:02;5.57;;;5.07;;
30519;SDS011;17300;50.374;8.006;2022-11-15T05:01:29;5.20;;;4.70;;
30519;SDS011;17300;50.374;8.006;2022-11-15T05:03:56;5.13;;;4.63;;
30519;SDS011;17300;50.374;8.006;2022-11-15T05:06:40;5.73;;;4.80;;
30519;SDS011;17300;50.374;8.006;2022-11-15T05:09:07;5.90;;;5.40;;
30519;SDS011;17300;50.374;8.006;2022-11-15T05:11:33;5.10;;;4.60;;
30519;SDS011;17300;50.374;8.006;2022-11-15T05:14:01;4.57;;;4.17;;
30519;SDS011;17300;50.374;8.006;2022-11-15T05:16:28;5.23;;;4.73;;
30519;SDS011;17300;50.374;8.006;2022-11-15T05:18:55;5.37;;;4.87;;
30519;SDS011;17300;50.374;8.006;2022-11-15T05:21:22;5.20;;;4.70;;
30519;SDS011;17300;50.374;8.006;2022-11-15T05:23:48;5.27;;;4.50;;
30519;SDS011;17300;50.374;8.006;2022-11-15T05:26:15;5.53;;;4.93;;
30519;SDS011;17300;50.374;8.006;2022-11-15T05:28:44;5.47;;;4.90;;
30519;SDS011;17300;50.374;8.006;2022-11-15T05:31:12;5.30;;;4.80;;
30519;SDS011;17300;50.374;8.006;2022-11-15T05:33:40;5.40;;;4.90;;
30519;SDS011;17300;50.374;8.006;2022-11-15T05:36:09;5.87;;;4.77;;
30519;SDS011;17300;50.374;8.006;2022-11-15T05:38:40;5.27;;;4.77;;
30519;SDS011;17300;50.374;8.006;2022-11-15T05:41:07;5.37;;;4.87;;
30519;SDS011;17300;50.374;8.006;2022-11-15T05:43:35;5.73;;;5.23;;
30519;SDS011;17300;50.374;8.006;2022-11-15T05:46:05;5.10;;;4.60;;
30519;SDS011;17300;50.374;8.006;2022-11-15T05:48:31;5.13;;;4.73;;
30519;SDS011;17300;50.374;8.006;2022-11-15T05:51:00;5.03;;;4.53;;
30519;SDS011;17300;50.374;8.006;2022-11-15T05:53:29;5.27;;;4.77;;
30519;SDS011;17300;50.374;8.006;2022-11-15T05:55:56;4.47;;;4.07;;
30519;SDS011;17300;50.374;8.006;2022-11-15T05:58:23;4.63;;;4.10;;
30519;SDS011;17300;50.374;8.006;2022-11-15T06:00:50;4.83;;;4.40;;
30519;SDS011;17300;50.374;8.006;2022-11-15T06:03:18;5.53;;;4.50;;
30519;SDS011;17300;50.374;8.006;2022-11-15T06:05:44;5.00;;;4.50;;
30519;SDS011;17300;50.374;8.006;2022-11-15T06:08:11;4.90;;;4.50;;
30519;SDS011;17300;50.374;8.006;2022-11-15T06:10:38;4.83;;;4.10;;
30519;SDS011;17300;50.374;8.006;2022-11-15T06:13:04;4.50;;;4.10;;
30519;SDS011;17300;50.374;8.006;2022-11-15T06:15:31;4.30;;;3.90;;
30519;SDS011;17300;50.374;8.006;2022-11-15T06:17:59;3.83;;;3.43;;
30519;SDS011;17300;50.374;8.006;2022-11-15T06:20:27;3.80;;;3.50;;
30519;SDS011;17300;50.374;8.006;2022-11-15T06:22:56;3.93;;;3.63;;
30519;SDS011;17300;50.374;8.006;2022-11-15T06:25:23;4.63;;;3.50;;
30519;SDS011;17300;50.374;8.006;2022-11-15T06:27:51;4.40;;;4.00;;
30519;SDS011;17300;50.374;8.006;2022-11-15T06:30:18;4.67;;;3.87;;
30519;SDS011;17300;50.374;8.006;2022-11-15T06:32:44;4.60;;;4.03;;
30519;SDS011;17300;50.374;8.006;2022-11-15T06:35:11;4.77;;;3.83;;
30519;SDS011;17300;50.374;8.006;2022-11-15T06:37:39;4.07;;;3.77;;
30519;SDS011;17300;50.374;8.006;2022-11-15T06:40:07;4.00;;;3.60;;
30519;SDS011;17300;50.374;8.006;2022-11-15T06:42:35;4.00;;;3.60;;
30519;SDS011;17300;50.374;8.006;2022-11-15T06:45:02;6.27;;;3.90;;
30519;SDS011;17300;50.374;8.006;2022-11-15T06:47:28;3.80;;;3.40;;
30519;SDS011;17300;50.374;8.006;2022-11-15T06:49:55;6.38;;;5.78;;
30519;SDS011;17300;50.374;8.006;2022-11-15T06:52:22;4.83;;;4.33;;
30519;SDS011;17300;50.374;8.006;2022-11-15T06:54:50;4.07;;;3.67;;
30519;SDS011;17300;50.374;8.006;2022-11-15T06:57:17;4.00;;;3.60;;
30519;SDS011;17300;50.374;8.006;2022-11-15T07:00:13;3.50;;;3.20;;
30519;SDS011;17300;50.374;8.006;2022-11-15T07:02:45;4.20;;;3.30;;
30519;SDS011;17300;50.374;8.006;2022-11-15T07:05:13;4.30;;;3.47;;
30519;SDS011;17300;50.374;8.006;2022-11-15T07:10:38;4.53;;;3.90;;
30519;SDS011;17300;50.374;8.006;2022-11-15T07:13:05;4.77;;;3.80;;
30519;SDS011;17300;50.374;8.006;2022-11-15T07:18:50;4.33;;;3.93;;
30519;SDS011;17300;50.374;8.006;2022-11-15T07:21:52;3.97;;;3.57;;
30519;SDS011;17300;50.374;8.006;2022-11-15T07:24:51;6.90;;;3.40;;
30519;SDS011;17300;50.374;8.006;2022-11-15T07:27:55;3.60;;;3.30;;
30519;SDS011;17300;50.374;8.006;2022-11-15T07:30:22;4.33;;;3.83;;
30519;SDS011;17300;50.374;8.006;2022-11-15T07:32:54;4.73;;;3.87;;
30519;SDS011;17300;50.374;8.006;2022-11-15T07:35:24;4.63;;;3.90;;
30519;SDS011;17300;50.374;8.006;2022-11-15T07:37:53;5.93;;;4.20;;
30519;SDS011;17300;50.374;8.006;2022-11-15T07:40:27;4.23;;;3.83;;
30519;SDS011;17300;50.374;8.006;2022-11-15T07:43:15;5.77;;;3.27;;
30519;SDS011;17300;50.374;8.006;2022-11-15T07:45:42;4.50;;;3.47;;
30519;SDS011;17300;50.374;8.006;2022-11-15T07:48:10;3.83;;;3.53;;
30519;SDS011;17300;50.374;8.006;2022-11-15T07:50:39;4.27;;;3.70;;
30519;SDS011;17300;50.374;8.006;2022-11-15T07:53:07;4.77;;;4.10;;
30519;SDS011;17300;50.374;8.006;2022-11-15T07:55:35;4.30;;;3.90;;
30519;SDS011;17300;50.374;8.006;2022-11-15T07:58:02;4.27;;;3.87;;
30519;SDS011;17300;50.374;8.006;2022-11-15T08:00:31;4.73;;;4.23;;
30519;SDS011;17300;50.374;8.006;2022-11-15T08:03:01;4.47;;;4.07;;
30519;SDS011;17300;50.374;8.006;2022-11-15T08:05:29;3.97;;;3.50;;
30519;SDS011;17300;50.374;8.006;2022-11-15T08:07:56;4.57;;;3.90;;
30519;SDS011;17300;50.374;8.006;2022-11-15T08:10:23;4.63;;;4.23;;
30519;SDS011;17300;50.374;8.006;2022-11-15T08:12:56;4.60;;;4.20;;
30519;SDS011;17300;50.374;8.006;2022-11-15T08:15:23;4.83;;;4.27;;
30519;SDS011;17300;50.374;8.006;2022-11-15T08:17:54;5.07;;;4.57;;
30519;SDS011;17300;50.374;8.006;2022-11-15T08:20:21;6.50;;;4.53;;
30519;SDS011;17300;50.374;8.006;2022-11-15T08:22:48;4.37;;;3.97;;
30519;SDS011;17300;50.374;8.006;2022-11-15T08:25:15;4.17;;;3.87;;
30519;SDS011;17300;50.374;8.006;2022-11-15T08:27:42;4.83;;;4.43;;
30519;SDS011;17300;50.374;8.006;2022-11-15T08:30:09;5.37;;;4.67;;
30519;SDS011;17300;50.374;8.006;2022-11-15T08:32:37;4.70;;;4.30;;
30519;SDS011;17300;50.374;8.006;2022-11-15T08:35:05;5.27;;;4.67;;
30519;SDS011;17300;50.374;8.006;2022-11-15T08:37:33;5.40;;;4.80;;
30519;SDS011;17300;50.374;8.006;2022-11-15T08:40:00;5.23;;;4.73;;
30519;SDS011;17300;50.374;8.006;2022-11-15T08:42:27;5.40;;;5.00;;
30519;SDS011;17300;50.374;8.006;2022-11-15T08:44:53;5.93;;;5.00;;
30519;SDS011;17300;50.374;8.006;2022-11-15T08:47:20;5.47;;;4.97;;
30519;SDS011;17300;50.374;8.006;2022-11-15T08:49:47;5.13;;;4.73;;
30519;SDS011;17300;50.374;8.006;2022-11-15T08:52:15;5.80;;;5.20;;
30519;SDS011;17300;50.374;8.006;2022-11-15T08:54:41;5.70;;;4.50;;
30519;SDS011;17300;50.374;8.006;2022-11-15T08:57:08;6.33;;;5.33;;
30519;SDS011;17300;50.374;8.006;2022-11-15T08:59:35;5.33;;;4.83;;
30519;SDS011;17300;50.374;8.006;2022-11-15T09:02:03;4.87;;;4.47;;
30519;SDS011;17300;50.374;8.006;2022-11-15T09:04:30;5.43;;;4.93;;
30519;SDS011;17300;50.374;8.006;2022-11-15T09:06:57;5.13;;;4.70;;
30519;SDS011;17300;50.374;8.006;2022-11-15T09:09:25;5.23;;;4.73;;
30519;SDS011;17300;50.374;8.006;2022-11-15T09:11:52;5.40;;;4.90;;
30519;SDS011;17300;50.374;8.006;2022-11-15T09:14:18;4.57;;;4.17;;
30519;SDS011;17300;50.374;8.006;2022-11-15T09:16:45;5.37;;;4.93;;
30519;SDS011;17300;50.374;8.006;2022-11-15T09:19:12;4.70;;;4.30;;
30519;SDS011;17300;50.374;8.006;2022-11-15T09:21:40;4.80;;;4.40;;
30519;SDS011;17300;50.374;8.006;2022-11-15T09:24:07;5.13;;;4.63;;
30519;SDS011;17300;50.374;8.006;2022-11-15T09:26:35;5.33;;;4.83;;
30519;SDS011;17300;50.374;8.006;2022-11-15T09:29:02;6.00;;;5.23;;
30519;SDS011;17300;50.374;8.006;2022-11-15T09:31:29;5.63;;;5.13;;
30519;SDS011;17300;50.374;8.006;2022-11-15T09:33:55;5.93;;;5.33;;
30519;SDS011;17300;50.374;8.006;2022-11-15T09:36:22;10.17;;;5.90;;
30519;SDS011;17300;50.374;8.006;2022-11-15T09:38:49;6.67;;;5.47;;
30519;SDS011;17300;50.374;8.006;2022-11-15T09:41:24;7.17;;;6.50;;
30519;SDS011;17300;50.374;8.006;2022-11-15T09:44:03;7.97;;;6.50;;
30519;SDS011;17300;50.374;8.006;2022-11-15T09:46:38;7.17;;;6.47;;
30519;SDS011;17300;50.374;8.006;2022-11-15T09:49:13;6.97;;;5.97;;
30519;SDS011;17300;50.374;8.006;2022-11-15T09:51:43;6.77;;;6.27;;
30519;SDS011;17300;50.374;8.006;2022-11-15T09:54:18;6.90;;;6.30;;
30519;SDS011;17300;50.374;8.006;2022-11-15T09:56:52;6.70;;;6.00;;
30519;SDS011;17300;50.374;8.006;2022-11-15T09:59:26;8.03;;;7.23;;
30519;SDS011;17300;50.374;8.006;2022-11-15T10:02:04;8.40;;;7.60;;
30519;SDS011;17300;50.374;8.006;2022-11-15T10:04:42;7.10;;;6.40;;
30519;SDS011;17300;50.374;8.006;2022-11-15T10:07:13;7.23;;;6.63;;
30519;SDS011;17300;50.374;8.006;2022-11-15T10:09:44;7.57;;;6.87;;
30519;SDS011;17300;50.374;8.006;2022-11-15T10:12:13;6.83;;;6.23;;
30519;SDS011;17300;50.374;8.006;2022-11-15T10:14:43;7.30;;;6.67;;
30519;SDS011;17300;50.374;8.006;2022-11-15T10:17:17;7.50;;;6.67;;
30519;SDS011;17300;50.374;8.006;2022-11-15T10:19:56;9.07;;;6.57;;
30519;SDS011;17300;50.374;8.006;2022-11-15T10:22:35;7.80;;;7.07;;
30519;SDS011;17300;50.374;8.006;2022-11-15T10:27:55;9.03;;;8.23;;
30519;SDS011;17300;50.374;8.006;2022-11-15T10:30:29;8.27;;;7.40;;
30519;SDS011;17300;50.374;8.006;2022-11-15T10:32:58;7.67;;;6.93;;
30519;SDS011;17300;50.374;8.006;2022-11-15T10:35:48;8.43;;;7.53;;
30519;SDS011;17300;50.374;8.006;2022-11-15T10:38:43;7.67;;;6.97;;
30519;SDS011;17300;50.374;8.006;2022-11-15T10:41:19;8.23;;;7.40;;
30519;SDS011;17300;50.374;8.006;2022-11-15T10:44:00;7.70;;;7.00;;
30519;SDS011;17300;50.374;8.006;2022-11-15T10:46:35;7.13;;;6.50;;
30519;SDS011;17300;50.374;8.006;2022-11-15T10:49:11;7.60;;;6.90;;
30519;SDS011;17300;50.374;8.006;2022-11-15T10:51:40;9.40;;;7.47;;
30519;SDS011;17300;50.374;8.006;2022-11-15T10:54:10;7.53;;;6.70;;
30519;SDS011;17300;50.374;8.006;2022-11-15T10:56:38;7.07;;;6.47;;
30519;SDS011;17300;50.374;8.006;2022-11-15T10:59:12;6.87;;;6.27;;
30519;SDS011;17300;50.374;8.006;2022-11-15T11:01:46;6.50;;;5.90;;
30519;SDS011;17300;50.374;8.006;2022-11-15T11:04:14;7.00;;;6.30;;
30519;SDS011;17300;50.374;8.006;2022-11-15T11:06:47;5.47;;;4.97;;
30519;SDS011;17300;50.374;8.006;2022-11-15T11:09:23;5.67;;;5.10;;
30519;SDS011;17300;50.374;8.006;2022-11-15T11:11:56;5.90;;;5.40;;
30519;SDS011;17300;50.374;8.006;2022-11-15T11:14:24;5.97;;;5.37;;
30519;SDS011;17300;50.374;8.006;2022-11-15T11:16:55;5.47;;;4.97;;
30519;SDS011;17300;50.374;8.006;2022-11-15T11:19:37;4.93;;;4.53;;
30519;SDS011;17300;50.374;8.006;2022-11-15T11:22:16;5.33;;;4.83;;
30519;SDS011;17300;50.374;8.006;2022-11-15T11:24:50;4.63;;;4.23;;
30519;SDS011;17300;50.374;8.006;2022-11-15T11:27:42;5.07;;;4.67;;
30519;SDS011;17300;50.374;8.006;2022-11-15T11:30:16;4.97;;;4.47;;
30519;SDS011;17300;50.374;8.006;2022-11-15T11:32:53;5.10;;;4.50;;
30519;SDS011;17300;50.374;8.006;2022-11-15T11:35:29;4.63;;;4.20;;
30519;SDS011;17300;50.374;8.006;2022-11-15T11:38:05;4.87;;;4.47;;
30519;SDS011;17300;50.374;8.006;2022-11-15T11:40:44;4.87;;;4.37;;
30519;SDS011;17300;50.374;8.006;2022-11-15T11:43:21;4.50;;;4.10;;
30519;SDS011;17300;50.374;8.006;2022-11-15T11:46:04;4.37;;;4.00;;
30519;SDS011;17300;50.374;8.006;2022-11-15T11:48:51;4.33;;;3.57;;
30519;SDS011;17300;50.374;8.006;2022-11-15T11:51:24;4.43;;;3.90;;
30519;SDS011;17300;50.374;8.006;2022-11-15T11:53:57;4.70;;;3.90;;
30519;SDS011;17300;50.374;8.006;2022-11-15T11:56:31;4.10;;;3.70;;
30519;SDS011;17300;50.374;8.006;2022-11-15T11:59:00;4.30;;;3.90;;
30519;SDS011;17300;50.374;8.006;2022-11-15T13:08:34;1.90;;;1.60;;
30519;SDS011;17300;50.374;8.006;2022-11-15T13:20:01;1.67;;;1.57;;
30519;SDS011;17300;50.374;8.006;2022-11-15T13:22:46;1.40;;;1.30;;
30519;SDS011;17300;50.374;8.006;2022-11-15T13:28:21;2.00;;;1.80;;
30519;SDS011;17300;50.374;8.006;2022-11-15T13:30:54;2.07;;;1.93;;
30519;SDS011;17300;50.374;8.006;2022-11-15T13:33:22;2.07;;;1.87;;
30519;SDS011;17300;50.374;8.006;2022-11-15T13:35:52;2.07;;;1.97;;
30519;SDS011;17300;50.374;8.006;2022-11-15T13:38:27;2.87;;;2.07;;
30519;SDS011;17300;50.374;8.006;2022-11-15T13:40:56;2.40;;;2.20;;
30519;SDS011;17300;50.374;8.006;2022-11-15T13:43:28;1.97;;;1.83;;
30519;SDS011;17300;50.374;8.006;2022-11-15T13:46:07;2.70;;;2.50;;
30519;SDS011;17300;50.374;8.006;2022-11-15T13:48:36;2.50;;;2.30;;
30519;SDS011;17300;50.374;8.006;2022-11-15T13:51:04;2.47;;;2.27;;
30519;SDS011;17300;50.374;8.006;2022-11-15T13:53:36;2.90;;;2.20;;
30519;SDS011;17300;50.374;8.006;2022-11-15T13:56:07;2.17;;;2.03;;
30519;SDS011;17300;50.374;8.006;2022-11-15T13:58:36;2.30;;;2.10;;
30519;SDS011;17300;50.374;8.006;2022-11-15T14:01:04;2.10;;;1.83;;
30519;SDS011;17300;50.374;8.006;2022-11-15T14:03:48;2.30;;;2.10;;
30519;SDS011;17300;50.374;8.006;2022-11-15T14:06:20;2.30;;;2.10;;
30519;SDS011;17300;50.374;8.006;2022-11-15T14:09:18;2.67;;;2.07;;
30519;SDS011;17300;50.374;8.006;2022-11-15T14:11:55;1.97;;;1.77;;
30519;SDS011;17300;50.374;8.006;2022-11-15T14:14:23;2.03;;;1.90;;
30519;SDS011;17300;50.374;8.006;2022-11-15T14:16:52;3.13;;;1.93;;
30519;SDS011;17300;50.374;8.006;2022-11-15T14:19:39;2.20;;;2.00;;
30519;SDS011;17300;50.374;8.006;2022-11-15T14:22:09;2.10;;;1.90;;
30519;SDS011;17300;50.374;8.006;2022-11-15T14:24:40;2.33;;;2.13;;
30519;SDS011;17300;50.374;8.006;2022-11-15T14:27:21;2.17;;;2.00;;
30519;SDS011;17300;50.374;8.006;2022-11-15T14:29:49;2.40;;;2.20;;
30519;SDS011;17300;50.374;8.006;2022-11-15T14:32:16;1.97;;;1.87;;
30519;SDS011;17300;50.374;8.006;2022-11-15T14:34:46;2.60;;;2.40;;
30519;SDS011;17300;50.374;8.006;2022-11-15T14:37:18;2.97;;;2.47;;
30519;SDS011;17300;50.374;8.006;2022-11-15T14:39:48;2.60;;;2.40;;
30519;SDS011;17300;50.374;8.006;2022-11-15T14:42:15;3.13;;;2.43;;
30519;SDS011;17300;50.374;8.006;2022-11-15T14:44:43;2.40;;;2.20;;
30519;SDS011;17300;50.374;8.006;2022-11-15T14:47:09;2.90;;;2.70;;
30519;SDS011;17300;50.374;8.006;2022-11-15T14:49:36;2.80;;;2.60;;
30519;SDS011;17300;50.374;8.006;2022-11-15T14:52:04;2.23;;;2.13;;
30519;SDS011;17300;50.374;8.006;2022-11-15T14:54:41;2.63;;;2.43;;
30519;SDS011;17300;50.374;8.006;2022-11-15T14:57:09;2.87;;;2.57;;
30519;SDS011;17300;50.374;8.006;2022-11-15T14:59:35;3.83;;;3.43;;
30519;SDS011;17300;50.374;8.006;2022-11-15T15:02:04;3.50;;;3.20;;
30519;SDS011;17300;50.374;8.006;2022-11-15T15:04:38;3.70;;;3.40;;
30519;SDS011;17300;50.374;8.006;2022-11-15T15:07:05;4.00;;;3.20;;
30519;SDS011;17300;50.374;8.006;2022-11-15T15:09:32;4.67;;;3.20;;
30519;SDS011;17300;50.374;8.006;2022-11-15T15:11:58;3.83;;;3.23;;
30519;SDS011;17300;50.374;8.006;2022-11-15T15:14:26;3.40;;;3.10;;
30519;SDS011;17300;50.374;8.006;2022-11-15T15:16:53;3.17;;;2.97;;
30519;SDS011;17300;50.374;8.006;2022-11-15T15:19:20;4.63;;;3.23;;
30519;SDS011;17300;50.374;8.006;2022-11-15T15:21:46;3.00;;;2.80;;
30519;SDS011;17300;50.374;8.006;2022-11-15T15:24:13;3.33;;;2.70;;
30519;SDS011;17300;50.374;8.006;2022-11-15T15:26:40;3.20;;;2.90;;
30519;SDS011;17300;50.374;8.006;2022-11-15T15:29:08;2.87;;;2.67;;
30519;SDS011;17300;50.374;8.006;2022-11-15T15:31:36;3.10;;;2.87;;
30519;SDS011;17300;50.374;8.006;2022-11-15T15:34:03;2.80;;;2.60;;
30519;SDS011;17300;50.374;8.006;2022-11-15T15:36:30;2.80;;;2.60;;
30519;SDS011;17300;50.374;8.006;2022-11-15T15:38:56;6.73;;;5.03;;
30519;SDS011;17300;50.374;8.006;2022-11-15T15:41:23;9.03;;;6.60;;
30519;SDS011;17300;50.374;8.006;2022-11-15T15:43:50;8.00;;;5.97;;
30519;SDS011;17300;50.374;8.006;2022-11-15T15:46:17;5.33;;;4.40;;
30519;SDS011;17300;50.374;8.006;2022-11-15T15:48:46;4.57;;;3.67;;
30519;SDS011;17300;50.374;8.006;2022-11-15T15:51:13;3.20;;;2.90;;
30519;SDS011;17300;50.374;8.006;2022-11-15T15:53:43;3.07;;;2.87;;
30519;SDS011;17300;50.374;8.006;2022-11-15T15:56:23;2.73;;;2.53;;
30519;SDS011;17300;50.374;8.006;2022-11-15T15:58:50;3.27;;;2.97;;
30519;SDS011;17300;50.374;8.006;2022-11-15T16:01:19;2.97;;;2.77;;
30519;SDS011;17300;50.374;8.006;2022-11-15T16:21:28;3.10;;;2.80;;
30519;SDS011;17300;50.374;8.006;2022-11-15T16:24:15;2.87;;;2.67;;
30519;SDS011;17300;50.374;8.006;2022-11-15T16:27:00;3.03;;;2.73;;
30519;SDS011;17300;50.374;8.006;2022-11-15T16:30:08;3.87;;;2.77;;
30519;SDS011;17300;50.374;8.006;2022-11-15T16:33:00;2.70;;;2.50;;
30519;SDS011;17300;50.374;8.006;2022-11-15T16:45:19;3.17;;;2.87;;
30519;SDS011;17300;50.374;8.006;2022-11-15T16:51:19;3.80;;;3.50;;
30519;SDS011;17300;50.374;8.006;2022-11-15T16:53:46;3.50;;;3.20;;
30519;SDS011;17300;50.374;8.006;2022-11-15T16:56:17;3.97;;;3.47;;
30519;SDS011;17300;50.374;8.006;2022-11-15T16:58:47;3.50;;;3.20;;
30519;SDS011;17300;50.374;8.006;2022-11-15T17:01:15;4.00;;;3.60;;
30519;SDS011;17300;50.374;8.006;2022-11-15T17:03:44;4.13;;;3.57;;
30519;SDS011;17300;50.374;8.006;2022-11-15T17:06:11;4.23;;;3.87;;
30519;SDS011;17300;50.374;8.006;2022-11-15T17:08:38;4.60;;;3.87;;
30519;SDS011;17300;50.374;8.006;2022-11-15T17:11:05;4.70;;;3.93;;
30519;SDS011;17300;50.374;8.006;2022-11-15T17:13:32;4.20;;;3.77;;
30519;SDS011;17300;50.374;8.006;2022-11-15T17:16:07;3.60;;;3.30;;
30519;SDS011;17300;50.374;8.006;2022-11-15T17:18:42;3.60;;;3.30;;